createdAt,value
2023-03-16T00:00:38.748Z,1010.84
2023-03-16T00:00:59.798Z,1010.88
2023-03-16T00:01:20.884Z,1010.86
2023-03-16T00:01:42.056Z,1010.88
2023-03-16T00:02:03.160Z,1010.88
2023-03-16T00:02:24.438Z,1010.84
2023-03-16T00:02:45.621Z,1010.86
2023-03-16T00:03:06.897Z,1010.86
2023-03-16T00:03:27.980Z,1010.88
2023-03-16T00:03:49.065Z,1010.88
2023-03-16T00:04:10.198Z,1010.88
2023-03-16T00:04:31.317Z,1010.88
2023-03-16T00:04:52.370Z,1010.88
2023-03-16T00:05:13.422Z,1010.92
2023-03-16T00:05:34.537Z,1010.92
2023-03-16T00:05:55.614Z,1010.90
2023-03-16T00:06:16.709Z,1010.90
2023-03-16T00:06:37.753Z,1010.92
2023-03-16T00:06:58.800Z,1010.92
2023-03-16T00:07:19.904Z,1010.94
2023-03-16T00:07:40.930Z,1010.96
2023-03-16T00:08:01.988Z,1010.92
2023-03-16T00:08:23.085Z,1010.94
2023-03-16T00:08:44.173Z,1010.94
2023-03-16T00:09:05.227Z,1010.94
2023-03-16T00:09:26.278Z,1010.96
2023-03-16T00:09:47.341Z,1010.96
2023-03-16T00:10:08.393Z,1010.94
2023-03-16T00:10:29.634Z,1010.94
2023-03-16T00:10:50.773Z,1010.96
2023-03-16T00:11:11.818Z,1010.98
2023-03-16T00:11:32.876Z,1010.94
2023-03-16T00:11:53.944Z,1010.96
2023-03-16T00:12:15.015Z,1010.96
2023-03-16T00:12:36.061Z,1011.00
2023-03-16T00:12:57.148Z,1011.00
2023-03-16T00:13:18.233Z,1010.96
2023-03-16T00:13:39.307Z,1010.96
2023-03-16T00:14:00.404Z,1010.98
2023-03-16T00:14:21.459Z,1010.98
2023-03-16T00:14:42.519Z,1011.00
2023-03-16T00:15:03.592Z,1011.00
2023-03-16T00:15:24.694Z,1011.00
2023-03-16T00:15:45.810Z,1011.02
2023-03-16T00:16:06.877Z,1010.98
2023-03-16T00:16:28.008Z,1011.00
2023-03-16T00:16:49.186Z,1011.00
2023-03-16T00:17:10.251Z,1011.02
2023-03-16T00:17:31.351Z,1011.00
2023-03-16T00:17:52.450Z,1010.98
2023-03-16T00:18:13.499Z,1010.98
2023-03-16T00:18:34.568Z,1011.00
2023-03-16T00:18:55.682Z,1011.00
2023-03-16T00:19:16.749Z,1010.98
2023-03-16T00:19:37.819Z,1010.96
2023-03-16T00:19:58.874Z,1010.94
2023-03-16T00:20:19.938Z,1010.96
2023-03-16T00:20:41.014Z,1010.98
2023-03-16T00:21:02.130Z,1011.00
2023-03-16T00:21:23.180Z,1010.96
2023-03-16T00:21:44.262Z,1010.98
2023-03-16T00:22:05.467Z,1011.00
2023-03-16T00:22:26.544Z,1011.02
2023-03-16T00:22:47.603Z,1011.00
2023-03-16T00:23:08.679Z,1011.00
2023-03-16T00:23:29.777Z,1011.02
2023-03-16T00:23:50.829Z,1011.02
2023-03-16T00:24:11.899Z,1011.00
2023-03-16T00:24:32.976Z,1011.06
2023-03-16T00:24:54.052Z,1011.08
2023-03-16T00:25:15.081Z,1011.04
2023-03-16T00:25:36.136Z,1011.04
2023-03-16T00:25:57.202Z,1011.06
2023-03-16T00:26:18.366Z,1011.08
2023-03-16T00:26:39.391Z,1011.06
2023-03-16T00:27:00.452Z,1011.08
2023-03-16T00:27:21.507Z,1011.06
2023-03-16T00:27:42.617Z,1011.04
2023-03-16T00:28:03.676Z,1011.04
2023-03-16T00:28:24.722Z,1011.06
2023-03-16T00:28:45.784Z,1011.00
2023-03-16T00:29:06.839Z,1011.00
2023-03-16T00:29:27.923Z,1011.00
2023-03-16T00:29:48.988Z,1011.00
2023-03-16T00:30:10.090Z,1011.00
2023-03-16T00:30:31.190Z,1010.98
2023-03-16T00:30:52.268Z,1011.02
2023-03-16T00:31:13.327Z,1011.00
2023-03-16T00:31:34.380Z,1011.00
2023-03-16T00:31:55.465Z,1010.98
2023-03-16T00:32:16.517Z,1010.96
2023-03-16T00:32:37.644Z,1010.98
2023-03-16T00:32:58.757Z,1010.96
2023-03-16T00:33:19.806Z,1010.98
2023-03-16T00:33:40.875Z,1010.92
2023-03-16T00:34:01.939Z,1010.96
2023-03-16T00:34:23.027Z,1010.98
2023-03-16T00:34:44.130Z,1010.96
2023-03-16T00:35:07.350Z,1010.94
2023-03-16T00:35:29.962Z,1010.96
2023-03-16T00:35:51.112Z,1010.96
2023-03-16T00:36:12.212Z,1010.94
2023-03-16T00:36:33.267Z,1010.96
2023-03-16T00:36:54.361Z,1010.96
2023-03-16T00:37:15.464Z,1010.94
2023-03-16T00:37:36.546Z,1010.92
2023-03-16T00:37:57.584Z,1010.94
2023-03-16T00:38:18.653Z,1010.94
2023-03-16T00:38:39.738Z,1010.94
2023-03-16T00:39:00.798Z,1010.88
2023-03-16T00:39:21.851Z,1010.92
2023-03-16T00:39:42.913Z,1010.88
2023-03-16T00:40:03.998Z,1010.86
2023-03-16T00:40:25.175Z,1010.90
2023-03-16T00:40:46.211Z,1010.84
2023-03-16T00:41:07.300Z,1010.84
2023-03-16T00:41:28.332Z,1010.82
2023-03-16T00:41:49.384Z,1010.80
2023-03-16T00:42:10.448Z,1010.78
2023-03-16T00:42:31.515Z,1010.76
2023-03-16T00:42:52.584Z,1010.76
2023-03-16T00:43:13.648Z,1010.76
2023-03-16T00:43:34.718Z,1010.74
2023-03-16T00:43:55.776Z,1010.74
2023-03-16T00:44:16.818Z,1010.74
2023-03-16T00:44:37.895Z,1010.74
2023-03-16T00:44:58.955Z,1010.74
2023-03-16T00:45:20.168Z,1010.72
2023-03-16T00:45:41.282Z,1010.74
2023-03-16T00:46:02.399Z,1010.74
2023-03-16T00:46:23.486Z,1010.72
2023-03-16T00:46:44.538Z,1010.74
2023-03-16T00:47:05.608Z,1010.74
2023-03-16T00:47:26.689Z,1010.76
2023-03-16T00:47:47.781Z,1010.76
2023-03-16T00:48:08.831Z,1010.72
2023-03-16T00:48:29.927Z,1010.78
2023-03-16T00:48:50.983Z,1010.78
2023-03-16T00:49:12.033Z,1010.76
2023-03-16T00:49:33.094Z,1010.78
2023-03-16T00:49:54.195Z,1010.76
2023-03-16T00:50:15.368Z,1010.76
2023-03-16T00:50:36.435Z,1010.74
2023-03-16T00:50:57.491Z,1010.76
2023-03-16T00:51:18.571Z,1010.74
2023-03-16T00:51:39.603Z,1010.74
2023-03-16T00:52:00.660Z,1010.69
2023-03-16T00:52:21.724Z,1010.74
2023-03-16T00:52:42.779Z,1010.72
2023-03-16T00:53:03.840Z,1010.71
2023-03-16T00:53:24.894Z,1010.71
2023-03-16T00:53:45.980Z,1010.71
2023-03-16T00:54:07.035Z,1010.71
2023-03-16T00:54:28.145Z,1010.72
2023-03-16T00:54:49.201Z,1010.72
2023-03-16T00:55:10.248Z,1010.74
2023-03-16T00:55:31.319Z,1010.71
2023-03-16T00:55:52.398Z,1010.76
2023-03-16T00:56:13.453Z,1010.74
2023-03-16T00:56:34.529Z,1010.74
2023-03-16T00:56:55.584Z,1010.74
2023-03-16T00:57:16.653Z,1010.76
2023-03-16T00:57:37.718Z,1010.76
2023-03-16T00:57:58.785Z,1010.74
2023-03-16T00:58:19.861Z,1010.74
2023-03-16T00:58:40.945Z,1010.76
2023-03-16T00:59:01.982Z,1010.74
2023-03-16T00:59:23.058Z,1010.76
2023-03-16T00:59:44.125Z,1010.78
2023-03-16T01:00:07.120Z,1010.74
2023-03-16T01:00:28.712Z,1010.76
2023-03-16T01:00:50.092Z,1010.74
2023-03-16T01:01:11.390Z,1010.74
2023-03-16T01:01:32.473Z,1010.74
2023-03-16T01:01:53.531Z,1010.74
2023-03-16T01:02:14.591Z,1010.71
2023-03-16T01:02:35.650Z,1010.69
2023-03-16T01:02:56.798Z,1010.71
2023-03-16T01:03:17.919Z,1010.72
2023-03-16T01:03:39.057Z,1010.71
2023-03-16T01:04:00.117Z,1010.71
2023-03-16T01:04:21.171Z,1010.72
2023-03-16T01:04:42.228Z,1010.71
2023-03-16T01:05:03.315Z,1010.72
2023-03-16T01:05:24.347Z,1010.72
2023-03-16T01:05:45.418Z,1010.72
2023-03-16T01:06:06.515Z,1010.72
2023-03-16T01:06:27.571Z,1010.72
2023-03-16T01:06:48.616Z,1010.72
2023-03-16T01:07:09.688Z,1010.72
2023-03-16T01:07:30.783Z,1010.72
2023-03-16T01:07:51.826Z,1010.72
2023-03-16T01:08:12.894Z,1010.72
2023-03-16T01:08:33.952Z,1010.72
2023-03-16T01:08:55.039Z,1010.72
2023-03-16T01:09:16.114Z,1010.69
2023-03-16T01:09:37.310Z,1010.71
2023-03-16T01:09:58.349Z,1010.72
2023-03-16T01:10:19.393Z,1010.69
2023-03-16T01:10:40.452Z,1010.69
2023-03-16T01:11:01.529Z,1010.69
2023-03-16T01:11:22.613Z,1010.72
2023-03-16T01:11:43.683Z,1010.69
2023-03-16T01:12:04.756Z,1010.67
2023-03-16T01:12:25.810Z,1010.72
2023-03-16T01:12:46.888Z,1010.67
2023-03-16T01:13:07.944Z,1010.67
2023-03-16T01:13:29.043Z,1010.67
2023-03-16T01:13:50.094Z,1010.67
2023-03-16T01:14:11.145Z,1010.67
2023-03-16T01:14:32.189Z,1010.65
2023-03-16T01:14:53.250Z,1010.67
2023-03-16T01:15:14.316Z,1010.65
2023-03-16T01:15:35.361Z,1010.65
2023-03-16T01:15:56.422Z,1010.65
2023-03-16T01:16:17.513Z,1010.65
2023-03-16T01:16:38.627Z,1010.63
2023-03-16T01:16:59.677Z,1010.63
2023-03-16T01:17:20.787Z,1010.63
2023-03-16T01:17:41.820Z,1010.61
2023-03-16T01:18:02.866Z,1010.63
2023-03-16T01:18:23.938Z,1010.61
2023-03-16T01:18:44.997Z,1010.61
2023-03-16T01:19:06.082Z,1010.63
2023-03-16T01:19:27.159Z,1010.65
2023-03-16T01:19:48.228Z,1010.67
2023-03-16T01:20:09.277Z,1010.67
2023-03-16T01:20:30.403Z,1010.67
2023-03-16T01:20:51.441Z,1010.67
2023-03-16T01:21:12.546Z,1010.65
2023-03-16T01:21:33.627Z,1010.67
2023-03-16T01:21:54.681Z,1010.69
2023-03-16T01:22:15.733Z,1010.69
2023-03-16T01:22:36.791Z,1010.69
2023-03-16T01:22:57.848Z,1010.69
2023-03-16T01:23:18.918Z,1010.71
2023-03-16T01:23:39.989Z,1010.71
2023-03-16T01:24:01.048Z,1010.71
2023-03-16T01:24:22.077Z,1010.71
2023-03-16T01:24:43.190Z,1010.72
2023-03-16T01:25:04.210Z,1010.69
2023-03-16T01:25:25.257Z,1010.69
2023-03-16T01:25:46.348Z,1010.71
2023-03-16T01:26:07.368Z,1010.71
2023-03-16T01:26:28.451Z,1010.69
2023-03-16T01:26:49.527Z,1010.69
2023-03-16T01:27:10.579Z,1010.69
2023-03-16T01:27:31.642Z,1010.71
2023-03-16T01:27:52.686Z,1010.71
2023-03-16T01:28:13.753Z,1010.67
2023-03-16T01:28:34.851Z,1010.71
2023-03-16T01:28:55.929Z,1010.71
2023-03-16T01:29:16.966Z,1010.67
2023-03-16T01:29:38.051Z,1010.69
2023-03-16T01:29:59.104Z,1010.69
2023-03-16T01:30:20.166Z,1010.65
2023-03-16T01:30:41.267Z,1010.65
2023-03-16T01:31:02.445Z,1010.65
2023-03-16T01:31:23.578Z,1010.67
2023-03-16T01:31:44.608Z,1010.67
2023-03-16T01:32:05.826Z,1010.63
2023-03-16T01:32:26.908Z,1010.65
2023-03-16T01:32:47.982Z,1010.65
2023-03-16T01:33:09.128Z,1010.63
2023-03-16T01:33:30.228Z,1010.65
2023-03-16T01:33:51.277Z,1010.63
2023-03-16T01:34:12.388Z,1010.63
2023-03-16T01:34:33.446Z,1010.65
2023-03-16T01:34:54.495Z,1010.65
2023-03-16T01:35:15.589Z,1010.65
2023-03-16T01:35:36.755Z,1010.63
2023-03-16T01:35:57.847Z,1010.63
2023-03-16T01:36:18.976Z,1010.65
2023-03-16T01:36:40.029Z,1010.65
2023-03-16T01:37:01.077Z,1010.63
2023-03-16T01:37:22.324Z,1010.61
2023-03-16T01:37:43.369Z,1010.61
2023-03-16T01:38:04.439Z,1010.59
2023-03-16T01:38:25.496Z,1010.61
2023-03-16T01:38:46.544Z,1010.59
2023-03-16T01:39:07.668Z,1010.59
2023-03-16T01:39:28.713Z,1010.59
2023-03-16T01:39:49.753Z,1010.59
2023-03-16T01:40:10.847Z,1010.59
2023-03-16T01:40:31.879Z,1010.59
2023-03-16T01:40:52.940Z,1010.59
2023-03-16T01:41:14.018Z,1010.59
2023-03-16T01:41:35.092Z,1010.59
2023-03-16T01:41:56.144Z,1010.59
2023-03-16T01:42:17.221Z,1010.59
2023-03-16T01:42:38.284Z,1010.59
2023-03-16T01:42:59.346Z,1010.57
2023-03-16T01:43:20.410Z,1010.59
2023-03-16T01:43:41.458Z,1010.55
2023-03-16T01:44:02.530Z,1010.53
2023-03-16T01:44:23.596Z,1010.53
2023-03-16T01:44:44.683Z,1010.44
2023-03-16T01:45:05.820Z,1010.44
2023-03-16T01:45:26.855Z,1010.42
2023-03-16T01:45:48.040Z,1010.53
2023-03-16T01:46:09.196Z,1010.44
2023-03-16T01:46:30.353Z,1010.42
2023-03-16T01:46:51.412Z,1010.44
2023-03-16T01:47:12.475Z,1010.44
2023-03-16T01:47:33.557Z,1010.44
2023-03-16T01:47:54.646Z,1010.53
2023-03-16T01:48:15.707Z,1010.42
2023-03-16T01:48:36.759Z,1010.53
2023-03-16T01:48:57.828Z,1010.42
2023-03-16T01:49:18.900Z,1010.42
2023-03-16T01:49:39.944Z,1010.42
2023-03-16T01:50:01.028Z,1010.44
2023-03-16T01:50:22.086Z,1010.42
2023-03-16T01:50:43.129Z,1010.42
2023-03-16T01:51:06.233Z,1010.40
2023-03-16T01:51:27.322Z,1010.42
2023-03-16T01:51:48.388Z,1010.38
2023-03-16T01:52:09.449Z,1010.40
2023-03-16T01:52:30.545Z,1010.40
2023-03-16T01:52:51.603Z,1010.40
2023-03-16T01:53:12.820Z,1010.37
2023-03-16T01:53:33.874Z,1010.37
2023-03-16T01:53:54.932Z,1010.38
2023-03-16T01:54:16.024Z,1010.38
2023-03-16T01:54:37.077Z,1010.40
2023-03-16T01:54:58.143Z,1010.38
2023-03-16T01:55:19.201Z,1010.38
2023-03-16T01:55:40.265Z,1010.38
2023-03-16T01:56:01.329Z,1010.38
2023-03-16T01:56:22.405Z,1010.38
2023-03-16T01:56:43.582Z,1010.38
2023-03-16T01:57:04.641Z,1010.37
2023-03-16T01:57:25.837Z,1010.38
2023-03-16T01:57:46.866Z,1010.37
2023-03-16T01:58:07.948Z,1010.37
2023-03-16T01:58:29.143Z,1010.37
2023-03-16T01:58:50.190Z,1010.37
2023-03-16T01:59:11.289Z,1010.35
2023-03-16T01:59:32.364Z,1010.35
2023-03-16T01:59:53.405Z,1010.31
2023-03-16T02:00:14.490Z,1010.31
2023-03-16T02:00:35.520Z,1010.33
2023-03-16T02:00:56.591Z,1010.31
2023-03-16T02:01:17.751Z,1010.33
2023-03-16T02:01:38.894Z,1010.31
2023-03-16T02:01:59.997Z,1010.29
2023-03-16T02:02:21.042Z,1010.31
2023-03-16T02:02:42.101Z,1010.29
2023-03-16T02:03:03.178Z,1010.29
2023-03-16T02:03:24.229Z,1010.29
2023-03-16T02:03:45.351Z,1010.27
2023-03-16T02:04:06.470Z,1010.27
2023-03-16T02:04:27.737Z,1010.29
2023-03-16T02:04:48.916Z,1010.23
2023-03-16T02:05:10.188Z,1010.25
2023-03-16T02:05:31.241Z,1010.23
2023-03-16T02:05:52.281Z,1010.23
2023-03-16T02:06:13.352Z,1010.21
2023-03-16T02:06:34.434Z,1010.21
2023-03-16T02:06:55.461Z,1010.25
2023-03-16T02:07:16.512Z,1010.23
2023-03-16T02:07:37.586Z,1010.21
2023-03-16T02:07:58.655Z,1010.23
2023-03-16T02:08:19.726Z,1010.23
2023-03-16T02:08:40.797Z,1010.19
2023-03-16T02:09:01.861Z,1010.21
2023-03-16T02:09:22.931Z,1010.21
2023-03-16T02:09:43.996Z,1010.21
2023-03-16T02:10:05.062Z,1010.19
2023-03-16T02:10:26.515Z,1010.17
2023-03-16T02:10:47.746Z,1010.17
2023-03-16T02:11:08.816Z,1010.15
2023-03-16T02:11:29.867Z,1010.15
2023-03-16T02:11:50.916Z,1010.15
2023-03-16T02:12:12.042Z,1010.13
2023-03-16T02:12:33.108Z,1010.13
2023-03-16T02:12:54.158Z,1010.15
2023-03-16T02:13:15.224Z,1010.13
2023-03-16T02:13:36.266Z,1010.13
2023-03-16T02:13:57.343Z,1010.13
2023-03-16T02:14:18.429Z,1010.11
2023-03-16T02:14:39.501Z,1010.13
2023-03-16T02:15:00.581Z,1010.11
2023-03-16T02:15:21.626Z,1010.11
2023-03-16T02:15:42.779Z,1010.11
2023-03-16T02:16:03.863Z,1010.09
2023-03-16T02:16:24.944Z,1010.09
2023-03-16T02:16:45.994Z,1010.09
2023-03-16T02:17:07.062Z,1010.09
2023-03-16T02:17:28.121Z,1010.13
2023-03-16T02:17:49.158Z,1010.13
2023-03-16T02:18:10.265Z,1010.07
2023-03-16T02:18:31.315Z,1010.13
2023-03-16T02:18:52.368Z,1010.13
2023-03-16T02:19:13.443Z,1010.15
2023-03-16T02:19:34.519Z,1010.15
2023-03-16T02:19:55.574Z,1010.13
2023-03-16T02:20:16.643Z,1010.13
2023-03-16T02:20:37.723Z,1010.15
2023-03-16T02:20:58.781Z,1010.15
2023-03-16T02:21:19.827Z,1010.15
2023-03-16T02:21:40.883Z,1010.17
2023-03-16T02:22:01.954Z,1010.17
2023-03-16T02:22:23.015Z,1010.17
2023-03-16T02:22:44.129Z,1010.19
2023-03-16T02:23:05.188Z,1010.19
2023-03-16T02:23:26.262Z,1010.21
2023-03-16T02:23:47.332Z,1010.21
2023-03-16T02:24:08.353Z,1010.23
2023-03-16T02:24:29.428Z,1010.23
2023-03-16T02:24:50.526Z,1010.25
2023-03-16T02:25:11.583Z,1010.25
2023-03-16T02:25:32.636Z,1010.25
2023-03-16T02:25:53.703Z,1010.25
2023-03-16T02:26:14.782Z,1010.27
2023-03-16T02:26:35.818Z,1010.27
2023-03-16T02:26:56.861Z,1010.29
2023-03-16T02:27:17.922Z,1010.31
2023-03-16T02:27:39.033Z,1010.31
2023-03-16T02:28:00.136Z,1010.31
2023-03-16T02:28:21.166Z,1010.33
2023-03-16T02:28:42.297Z,1010.33
2023-03-16T02:29:03.324Z,1010.35
2023-03-16T02:29:24.398Z,1010.35
2023-03-16T02:29:45.453Z,1010.37
2023-03-16T02:30:06.535Z,1010.37
2023-03-16T02:30:27.854Z,1010.35
2023-03-16T02:30:49.042Z,1010.33
2023-03-16T02:31:10.135Z,1010.35
2023-03-16T02:31:31.263Z,1010.35
2023-03-16T02:31:52.313Z,1010.31
2023-03-16T02:32:13.403Z,1010.33
2023-03-16T02:32:34.547Z,1010.31
2023-03-16T02:32:55.669Z,1010.27
2023-03-16T02:33:16.695Z,1010.27
2023-03-16T02:33:37.757Z,1010.25
2023-03-16T02:33:58.824Z,1010.27
2023-03-16T02:34:19.890Z,1010.25
2023-03-16T02:34:40.973Z,1010.23
2023-03-16T02:35:02.032Z,1010.21
2023-03-16T02:35:23.107Z,1010.23
2023-03-16T02:35:44.216Z,1010.21
2023-03-16T02:36:05.323Z,1010.21
2023-03-16T02:36:26.386Z,1010.21
2023-03-16T02:36:47.453Z,1010.21
2023-03-16T02:37:08.560Z,1010.19
2023-03-16T02:37:29.581Z,1010.19
2023-03-16T02:37:50.654Z,1010.19
2023-03-16T02:38:11.717Z,1010.19
2023-03-16T02:38:32.772Z,1010.17
2023-03-16T02:38:53.830Z,1010.21
2023-03-16T02:39:14.933Z,1010.19
2023-03-16T02:39:35.979Z,1010.21
2023-03-16T02:39:57.018Z,1010.19
2023-03-16T02:40:18.086Z,1010.19
2023-03-16T02:40:39.155Z,1010.21
2023-03-16T02:41:00.243Z,1010.21
2023-03-16T02:41:21.327Z,1010.17
2023-03-16T02:41:42.370Z,1010.19
2023-03-16T02:42:03.423Z,1010.19
2023-03-16T02:42:24.499Z,1010.17
2023-03-16T02:42:45.591Z,1010.17
2023-03-16T02:43:06.633Z,1010.15
2023-03-16T02:43:27.699Z,1010.13
2023-03-16T02:43:48.751Z,1010.15
2023-03-16T02:44:09.817Z,1010.13
2023-03-16T02:44:30.892Z,1010.11
2023-03-16T02:44:51.961Z,1010.09
2023-03-16T02:45:12.997Z,1010.09
2023-03-16T02:45:34.100Z,1010.09
2023-03-16T02:45:55.133Z,1010.09
2023-03-16T02:46:16.253Z,1010.09
2023-03-16T02:46:37.492Z,1010.07
2023-03-16T02:46:58.649Z,1010.05
2023-03-16T02:47:19.724Z,1010.07
2023-03-16T02:47:40.762Z,1010.05
2023-03-16T02:48:01.837Z,1010.05
2023-03-16T02:48:22.893Z,1010.01
2023-03-16T02:48:43.960Z,1009.99
2023-03-16T02:49:05.062Z,1009.97
2023-03-16T02:49:26.076Z,1009.95
2023-03-16T02:49:47.146Z,1009.97
2023-03-16T02:50:08.246Z,1009.95
2023-03-16T02:50:29.633Z,1009.91
2023-03-16T02:50:50.869Z,1009.91
2023-03-16T02:51:11.915Z,1009.88
2023-03-16T02:51:32.962Z,1009.88
2023-03-16T02:51:54.042Z,1009.88
2023-03-16T02:52:15.095Z,1009.88
2023-03-16T02:52:36.147Z,1009.88
2023-03-16T02:52:57.236Z,1009.88
2023-03-16T02:53:18.353Z,1009.84
2023-03-16T02:53:39.403Z,1009.86
2023-03-16T02:54:00.469Z,1009.86
2023-03-16T02:54:21.522Z,1009.84
2023-03-16T02:54:42.609Z,1009.84
2023-03-16T02:55:03.668Z,1009.86
2023-03-16T02:55:24.710Z,1009.88
2023-03-16T02:55:45.763Z,1009.88
2023-03-16T02:56:06.846Z,1009.86
2023-03-16T02:56:27.898Z,1009.86
2023-03-16T02:56:48.968Z,1009.86
2023-03-16T02:57:10.016Z,1009.84
2023-03-16T02:57:31.082Z,1009.84
2023-03-16T02:57:52.143Z,1009.88
2023-03-16T02:58:13.209Z,1009.88
2023-03-16T02:58:34.301Z,1009.88
2023-03-16T02:58:55.337Z,1009.90
2023-03-16T02:59:16.408Z,1009.88
2023-03-16T02:59:37.453Z,1009.90
2023-03-16T02:59:58.509Z,1009.91
2023-03-16T03:00:19.555Z,1009.91
2023-03-16T03:00:40.622Z,1009.90
2023-03-16T03:01:01.669Z,1009.91
2023-03-16T03:01:22.741Z,1009.91
2023-03-16T03:01:43.821Z,1009.93
2023-03-16T03:02:04.874Z,1009.95
2023-03-16T03:02:25.975Z,1009.95
2023-03-16T03:02:47.055Z,1009.97
2023-03-16T03:03:08.140Z,1009.97
2023-03-16T03:03:29.296Z,1009.99
2023-03-16T03:03:50.339Z,1009.99
2023-03-16T03:04:11.396Z,1010.01
2023-03-16T03:04:32.444Z,1010.01
2023-03-16T03:04:53.524Z,1009.97
2023-03-16T03:05:14.597Z,1010.01
2023-03-16T03:05:35.648Z,1009.95
2023-03-16T03:05:56.754Z,1009.99
2023-03-16T03:06:17.790Z,1009.93
2023-03-16T03:06:38.855Z,1009.91
2023-03-16T03:06:59.920Z,1009.93
2023-03-16T03:07:21.005Z,1009.93
2023-03-16T03:07:42.091Z,1009.91
2023-03-16T03:08:03.153Z,1009.91
2023-03-16T03:08:24.202Z,1009.91
2023-03-16T03:08:45.252Z,1009.90
2023-03-16T03:09:06.307Z,1009.88
2023-03-16T03:09:27.353Z,1009.88
2023-03-16T03:09:48.420Z,1009.86
2023-03-16T03:10:09.507Z,1009.88
2023-03-16T03:10:30.541Z,1009.86
2023-03-16T03:10:51.595Z,1009.84
2023-03-16T03:11:12.676Z,1009.86
2023-03-16T03:11:33.717Z,1009.86
2023-03-16T03:11:54.803Z,1009.84
2023-03-16T03:12:15.849Z,1009.84
2023-03-16T03:12:36.919Z,1009.82
2023-03-16T03:12:57.975Z,1009.82
2023-03-16T03:13:19.041Z,1009.80
2023-03-16T03:13:40.098Z,1009.80
2023-03-16T03:14:01.160Z,1009.80
2023-03-16T03:14:22.202Z,1009.78
2023-03-16T03:14:43.353Z,1009.76
2023-03-16T03:15:04.412Z,1009.74
2023-03-16T03:15:25.520Z,1009.76
2023-03-16T03:15:46.565Z,1009.74
2023-03-16T03:16:07.693Z,1009.72
2023-03-16T03:16:28.872Z,1009.70
2023-03-16T03:16:49.912Z,1009.74
2023-03-16T03:17:11.082Z,1009.70
2023-03-16T03:17:32.166Z,1009.68
2023-03-16T03:17:53.216Z,1009.70
2023-03-16T03:18:14.276Z,1009.70
2023-03-16T03:18:35.327Z,1009.70
2023-03-16T03:18:56.418Z,1009.68
2023-03-16T03:19:17.455Z,1009.70
2023-03-16T03:19:38.507Z,1009.68
2023-03-16T03:19:59.584Z,1009.70
2023-03-16T03:20:20.665Z,1009.66
2023-03-16T03:20:41.715Z,1009.68
2023-03-16T03:21:02.806Z,1009.70
2023-03-16T03:21:23.868Z,1009.70
2023-03-16T03:21:44.934Z,1009.70
2023-03-16T03:22:05.996Z,1009.74
2023-03-16T03:22:27.114Z,1009.74
2023-03-16T03:22:48.147Z,1009.74
2023-03-16T03:23:09.202Z,1009.72
2023-03-16T03:23:30.274Z,1009.72
2023-03-16T03:23:51.329Z,1009.72
2023-03-16T03:24:12.374Z,1009.74
2023-03-16T03:24:33.465Z,1009.74
2023-03-16T03:24:54.580Z,1009.72
2023-03-16T03:25:15.674Z,1009.72
2023-03-16T03:25:36.712Z,1009.74
2023-03-16T03:25:57.771Z,1009.74
2023-03-16T03:26:18.857Z,1009.76
2023-03-16T03:26:39.918Z,1009.76
2023-03-16T03:27:00.945Z,1009.78
2023-03-16T03:27:22.064Z,1009.78
2023-03-16T03:27:43.166Z,1009.78
2023-03-16T03:28:04.252Z,1009.78
2023-03-16T03:28:25.356Z,1009.80
2023-03-16T03:28:46.413Z,1009.80
2023-03-16T03:29:07.462Z,1009.80
2023-03-16T03:29:28.518Z,1009.76
2023-03-16T03:29:49.572Z,1009.80
2023-03-16T03:30:10.634Z,1009.80
2023-03-16T03:30:31.689Z,1009.80
2023-03-16T03:30:52.739Z,1009.78
2023-03-16T03:31:13.831Z,1009.80
2023-03-16T03:31:34.900Z,1009.78
2023-03-16T03:31:55.953Z,1009.78
2023-03-16T03:32:17.015Z,1009.80
2023-03-16T03:32:38.142Z,1009.78
2023-03-16T03:32:59.264Z,1009.78
2023-03-16T03:33:20.300Z,1009.76
2023-03-16T03:33:41.384Z,1009.76
2023-03-16T03:34:02.421Z,1009.76
2023-03-16T03:34:23.532Z,1009.80
2023-03-16T03:34:44.564Z,1009.80
2023-03-16T03:35:05.666Z,1009.76
2023-03-16T03:35:26.769Z,1009.80
2023-03-16T03:35:47.853Z,1009.80
2023-03-16T03:36:09.046Z,1009.80
2023-03-16T03:36:30.121Z,1009.82
2023-03-16T03:36:51.171Z,1009.84
2023-03-16T03:37:12.239Z,1009.84
2023-03-16T03:37:33.319Z,1009.84
2023-03-16T03:37:54.365Z,1009.82
2023-03-16T03:38:15.434Z,1009.86
2023-03-16T03:38:36.519Z,1009.86
2023-03-16T03:38:57.600Z,1009.84
2023-03-16T03:39:18.626Z,1009.84
2023-03-16T03:39:39.699Z,1009.82
2023-03-16T03:40:00.759Z,1009.82
2023-03-16T03:40:21.840Z,1009.80
2023-03-16T03:40:42.893Z,1009.80
2023-03-16T03:41:03.991Z,1009.80
2023-03-16T03:41:25.005Z,1009.82
2023-03-16T03:41:46.079Z,1009.82
2023-03-16T03:42:07.132Z,1009.82
2023-03-16T03:42:28.172Z,1009.82
2023-03-16T03:42:49.242Z,1009.80
2023-03-16T03:43:10.285Z,1009.80
2023-03-16T03:43:31.373Z,1009.82
2023-03-16T03:43:52.428Z,1009.80
2023-03-16T03:44:13.507Z,1009.80
2023-03-16T03:44:34.649Z,1009.82
2023-03-16T03:44:55.689Z,1009.80
2023-03-16T03:45:16.776Z,1009.78
2023-03-16T03:45:37.878Z,1009.76
2023-03-16T03:45:59.101Z,1009.78
2023-03-16T03:46:20.314Z,1009.76
2023-03-16T03:46:41.596Z,1009.76
2023-03-16T03:47:02.780Z,1009.74
2023-03-16T03:47:23.849Z,1009.76
2023-03-16T03:47:44.894Z,1009.76
2023-03-16T03:48:05.976Z,1009.78
2023-03-16T03:48:27.014Z,1009.80
2023-03-16T03:48:48.107Z,1009.78
2023-03-16T03:49:09.164Z,1009.80
2023-03-16T03:49:30.246Z,1009.80
2023-03-16T03:49:51.291Z,1009.78
2023-03-16T03:50:12.361Z,1009.80
2023-03-16T03:50:33.415Z,1009.80
2023-03-16T03:50:54.461Z,1009.80
2023-03-16T03:51:15.580Z,1009.78
2023-03-16T03:51:36.640Z,1009.78
2023-03-16T03:51:57.672Z,1009.80
2023-03-16T03:52:18.728Z,1009.80
2023-03-16T03:52:39.837Z,1009.80
2023-03-16T03:53:00.897Z,1009.80
2023-03-16T03:53:21.956Z,1009.80
2023-03-16T03:53:42.999Z,1009.82
2023-03-16T03:54:04.136Z,1009.82
2023-03-16T03:54:25.176Z,1009.82
2023-03-16T03:54:46.230Z,1009.82
2023-03-16T03:55:07.303Z,1009.82
2023-03-16T03:55:28.344Z,1009.80
2023-03-16T03:55:49.409Z,1009.78
2023-03-16T03:56:10.459Z,1009.78
2023-03-16T03:56:31.549Z,1009.78
2023-03-16T03:56:52.590Z,1009.78
2023-03-16T03:57:13.662Z,1009.78
2023-03-16T03:57:34.724Z,1009.76
2023-03-16T03:57:55.771Z,1009.74
2023-03-16T03:58:16.830Z,1009.74
2023-03-16T03:58:37.886Z,1009.74
2023-03-16T03:58:58.951Z,1009.74
2023-03-16T03:59:20.053Z,1009.72
2023-03-16T03:59:41.092Z,1009.72
2023-03-16T04:00:02.166Z,1009.70
2023-03-16T04:00:23.218Z,1009.70
2023-03-16T04:00:44.300Z,1009.70
2023-03-16T04:01:05.398Z,1009.72
2023-03-16T04:01:26.454Z,1009.70
2023-03-16T04:01:47.516Z,1009.72
2023-03-16T04:02:08.662Z,1009.72
2023-03-16T04:02:29.890Z,1009.74
2023-03-16T04:02:51.065Z,1009.74
2023-03-16T04:03:12.342Z,1009.74
2023-03-16T04:03:33.568Z,1009.74
2023-03-16T04:03:54.624Z,1009.76
2023-03-16T04:04:15.696Z,1009.76
2023-03-16T04:04:36.770Z,1009.78
2023-03-16T04:04:57.867Z,1009.78
2023-03-16T04:05:18.895Z,1009.80
2023-03-16T04:05:39.952Z,1009.78
2023-03-16T04:06:01.036Z,1009.80
2023-03-16T04:06:22.111Z,1009.78
2023-03-16T04:06:43.144Z,1009.80
2023-03-16T04:07:04.214Z,1009.76
2023-03-16T04:07:25.289Z,1009.74
2023-03-16T04:07:46.341Z,1009.78
2023-03-16T04:08:07.406Z,1009.72
2023-03-16T04:08:28.553Z,1009.72
2023-03-16T04:08:49.626Z,1009.74
2023-03-16T04:09:10.691Z,1009.74
2023-03-16T04:09:31.766Z,1009.76
2023-03-16T04:09:52.847Z,1009.70
2023-03-16T04:10:13.913Z,1009.70
2023-03-16T04:10:34.968Z,1009.70
2023-03-16T04:10:56.037Z,1009.70
2023-03-16T04:11:17.221Z,1009.70
2023-03-16T04:11:38.239Z,1009.70
2023-03-16T04:11:59.298Z,1009.68
2023-03-16T04:12:20.350Z,1009.68
2023-03-16T04:12:41.407Z,1009.68
2023-03-16T04:13:02.605Z,1009.70
2023-03-16T04:13:23.686Z,1009.68
2023-03-16T04:13:44.722Z,1009.68
2023-03-16T04:14:05.784Z,1009.68
2023-03-16T04:14:26.851Z,1009.68
2023-03-16T04:14:47.946Z,1009.66
2023-03-16T04:15:08.997Z,1009.68
2023-03-16T04:15:30.066Z,1009.66